Time;durP1;ratioP1;P1;durP2;ratioP2;P2;SDS_P1;SDS_P2;PMS_P1;PMS_P2;Temp;Humidity;BMP_temperature;BMP_pressure;BME280_temperature;BME280_humidity;BME280_pressure;Samples;Min_cycle;Max_cycle;Signal;HPM_P1;HPM_P2
2022/10/04 00:02:30;;;;;;;1.20;1.20;;;11.20;99.90;;;;;;5010867;28;20210;-62
2022/10/04 00:05:11;;;;;;;1.30;1.20;;;11.30;99.90;;;;;;5011708;28;20212;-63
2022/10/04 00:07:49;;;;;;;2.00;1.50;;;11.30;99.90;;;;;;5021444;28;20228;-63
2022/10/04 00:10:23;;;;;;;1.27;1.27;;;11.30;99.90;;;;;;5024701;28;20615;-62
2022/10/04 00:12:52;;;;;;;1.47;1.37;;;11.20;99.90;;;;;;5021463;28;20291;-62
2022/10/04 00:15:23;;;;;;;1.27;1.27;;;11.20;99.90;;;;;;5019397;28;20221;-62
2022/10/04 00:18:31;;;;;;;1.40;1.30;;;11.10;99.90;;;;;;5014898;28;20220;-62
2022/10/04 00:24:22;;;;;;;1.40;1.30;;;11.00;99.90;;;;;;5006468;28;20216;-62
2022/10/04 00:27:12;;;;;;;1.50;1.40;;;11.00;99.90;;;;;;5019464;28;20201;-62
2022/10/04 00:29:41;;;;;;;1.50;1.40;;;11.00;99.90;;;;;;5021465;28;20213;-62
2022/10/04 00:32:29;;;;;;;1.40;1.30;;;11.00;99.90;;;;;;5019530;28;20205;-64
2022/10/04 00:34:59;;;;;;;1.20;1.20;;;11.00;99.90;;;;;;5018354;28;20203;-62
2022/10/04 00:37:27;;;;;;;1.20;1.20;;;10.90;99.90;;;;;;5027765;28;20208;-61
2022/10/04 00:40:11;;;;;;;1.40;1.30;;;10.90;99.90;;;;;;5028156;28;20193;-62
2022/10/04 00:42:46;;;;;;;1.40;1.33;;;10.90;99.90;;;;;;5024911;28;20211;-63
2022/10/04 00:45:20;;;;;;;1.60;1.50;;;10.90;99.90;;;;;;5025073;28;20284;-61
2022/10/04 00:48:01;;;;;;;1.20;1.20;;;11.00;99.90;;;;;;5023908;28;20571;-63
2022/10/04 00:50:34;;;;;;;1.30;1.20;;;11.00;99.90;;;;;;5023763;28;20686;-61
2022/10/04 00:53:03;;;;;;;1.20;1.20;;;10.90;99.90;;;;;;5028019;28;20209;-64
2022/10/04 00:55:39;;;;;;;1.47;1.37;;;11.00;99.90;;;;;;5023915;28;20216;-62
2022/10/04 00:58:15;;;;;;;1.53;1.43;;;10.90;99.90;;;;;;5028246;28;20231;-62
2022/10/04 01:00:43;;;;;;;1.30;1.30;;;10.80;99.90;;;;;;5025471;28;20212;-61
2022/10/04 01:03:16;;;;;;;1.60;1.50;;;10.80;99.90;;;;;;5025403;28;20639;-61
2022/10/04 01:05:48;;;;;;;2.30;1.40;;;10.70;99.90;;;;;;5021108;28;20260;-62
2022/10/04 01:08:18;;;;;;;1.77;1.30;;;10.60;99.90;;;;;;5026227;28;20232;-63
2022/10/04 01:10:49;;;;;;;1.13;1.10;;;10.60;99.90;;;;;;5025993;28;20205;-62
2022/10/04 01:13:19;;;;;;;1.50;1.40;;;10.60;99.90;;;;;;5020986;28;20278;-62
2022/10/04 01:15:54;;;;;;;1.33;1.30;;;10.60;99.90;;;;;;5026274;28;20635;-61
2022/10/04 01:18:38;;;;;;;1.30;1.20;;;10.60;99.90;;;;;;5026505;28;20221;-61
2022/10/04 01:21:09;;;;;;;1.20;1.20;;;10.60;99.90;;;;;;5020125;28;20197;-62
2022/10/04 01:23:42;;;;;;;1.70;1.30;;;10.60;99.90;;;;;;5024653;28;20201;-63
2022/10/04 01:26:43;;;;;;;1.60;1.50;;;10.60;99.90;;;;;;5027551;28;20573;-63
2022/10/04 01:29:14;;;;;;;1.13;1.10;;;10.50;99.90;;;;;;4965713;28;20234;-63
2022/10/04 01:31:42;;;;;;;1.30;1.20;;;10.50;99.90;;;;;;4970875;28;20206;-63
2022/10/04 01:34:13;;;;;;;1.30;1.20;;;10.50;99.90;;;;;;4966567;28;20204;-63
2022/10/04 01:36:40;;;;;;;1.33;1.23;;;10.50;99.90;;;;;;4971808;28;20214;-63
2022/10/04 01:39:08;;;;;;;1.43;1.33;;;10.50;99.90;;;;;;4973100;28;20228;-63
2022/10/04 01:41:45;;;;;;;1.30;1.30;;;10.50;99.90;;;;;;4973262;28;20209;-62
2022/10/04 01:44:18;;;;;;;1.50;1.40;;;10.40;99.90;;;;;;4967717;28;20207;-63
2022/10/04 01:46:46;;;;;;;1.37;1.37;;;10.40;99.90;;;;;;4969576;28;20305;-62
2022/10/04 01:49:19;;;;;;;1.10;1.10;;;10.40;99.90;;;;;;4971970;28;20230;-63
2022/10/04 01:51:53;;;;;;;2.20;1.47;;;10.50;99.90;;;;;;4968909;28;20270;-62
2022/10/04 01:54:29;;;;;;;1.50;1.40;;;10.40;99.90;;;;;;4971041;28;20211;-62
2022/10/04 01:57:02;;;;;;;1.53;1.43;;;10.40;99.90;;;;;;4965461;28;20209;-63
2022/10/04 01:59:33;;;;;;;1.30;1.30;;;10.30;99.90;;;;;;4980776;28;20229;-63
2022/10/04 02:02:05;;;;;;;1.13;1.13;;;10.30;99.90;;;;;;5025843;28;20211;-65
2022/10/04 02:04:36;;;;;;;1.43;1.40;;;10.30;99.90;;;;;;5024697;28;20200;-62
2022/10/04 02:07:10;;;;;;;1.40;1.40;;;10.20;99.90;;;;;;5025744;28;20213;-62
2022/10/04 02:09:42;;;;;;;2.50;1.30;;;10.20;99.90;;;;;;5023877;28;20216;-62
2022/10/04 02:12:10;;;;;;;1.40;1.30;;;10.20;99.90;;;;;;5026680;28;20211;-63
2022/10/04 02:14:38;;;;;;;1.10;1.10;;;10.20;99.90;;;;;;5023925;28;20209;-63
2022/10/04 02:17:09;;;;;;;1.47;1.37;;;10.10;99.90;;;;;;5019041;28;20235;-62
2022/10/04 02:19:39;;;;;;;1.57;1.40;;;10.10;99.90;;;;;;5038514;28;20740;-63
2022/10/04 02:22:08;;;;;;;1.40;1.33;;;10.10;99.90;;;;;;5030075;28;20279;-62
2022/10/04 02:24:41;;;;;;;1.33;1.33;;;10.10;99.90;;;;;;5030292;28;20299;-62
2022/10/04 02:27:08;;;;;;;1.33;1.30;;;10.10;99.90;;;;;;5022811;28;20211;-63
2022/10/04 02:29:35;;;;;;;1.30;1.20;;;10.20;99.90;;;;;;5029362;28;20230;-62
2022/10/04 02:34:49;;;;;;;1.17;1.13;;;10.10;99.90;;;;;;5024667;28;20295;-62
2022/10/04 02:37:17;;;;;;;1.40;1.30;;;10.20;99.90;;;;;;5024999;28;20748;-62
2022/10/04 02:39:48;;;;;;;1.33;1.23;;;10.20;99.90;;;;;;5013813;28;20208;-62
2022/10/04 02:42:22;;;;;;;1.57;1.47;;;10.20;99.90;;;;;;5021977;28;20287;-64
2022/10/04 02:44:56;;;;;;;1.40;1.30;;;10.20;99.90;;;;;;5023791;28;20660;-61
2022/10/04 02:47:28;;;;;;;1.50;1.40;;;10.10;99.90;;;;;;5023492;28;20576;-62
2022/10/04 02:49:58;;;;;;;1.40;1.30;;;10.10;99.90;;;;;;5012175;28;20568;-62
2022/10/04 02:52:31;;;;;;;1.47;1.37;;;10.00;99.90;;;;;;5024979;28;20206;-61
2022/10/04 02:55:04;;;;;;;1.40;1.30;;;9.90;99.90;;;;;;5013555;28;20669;-62
2022/10/04 02:57:33;;;;;;;1.60;1.50;;;9.90;99.90;;;;;;5022670;28;20228;-61
2022/10/04 03:00:17;;;;;;;1.37;1.27;;;9.80;99.90;;;;;;5024392;28;20275;-62
2022/10/04 03:03:12;;;;;;;1.20;1.20;;;9.90;99.90;;;;;;5023613;28;20221;-61
2022/10/04 03:05:40;;;;;;;1.33;1.23;;;9.80;99.90;;;;;;5022977;28;20239;-64
2022/10/04 03:08:08;;;;;;;1.23;1.17;;;9.80;99.90;;;;;;5021094;28;20627;-62
2022/10/04 03:10:36;;;;;;;1.23;1.23;;;9.80;99.90;;;;;;5026139;28;20229;-62
2022/10/04 03:13:04;;;;;;;1.30;1.30;;;9.70;99.90;;;;;;5020883;28;20205;-62
2022/10/04 03:15:31;;;;;;;1.20;1.20;;;9.60;99.90;;;;;;5027901;28;20205;-62
2022/10/04 03:17:59;;;;;;;1.20;1.20;;;9.60;99.90;;;;;;5020499;28;20253;-61
2022/10/04 03:20:27;;;;;;;1.57;1.47;;;9.50;99.90;;;;;;5028621;28;20200;-63
2022/10/04 03:22:55;;;;;;;1.30;1.30;;;9.60;99.90;;;;;;5020423;28;20201;-62
2022/10/04 03:25:25;;;;;;;1.23;1.20;;;9.60;99.90;;;;;;5020502;28;20205;-62
2022/10/04 03:27:55;;;;;;;1.40;1.30;;;9.50;99.90;;;;;;5014752;28;20643;-62
2022/10/04 03:30:23;;;;;;;1.70;1.30;;;9.40;99.90;;;;;;5016609;28;20227;-61
2022/10/04 03:32:51;;;;;;;1.63;1.53;;;9.40;99.90;;;;;;5027590;28;20285;-61
2022/10/04 03:35:28;;;;;;;1.50;1.40;;;9.30;99.90;;;;;;5018385;28;20201;-63
2022/10/04 03:37:57;;;;;;;1.20;1.20;;;9.40;99.90;;;;;;5019675;28;20215;-62
2022/10/04 03:40:27;;;;;;;1.10;1.10;;;9.40;99.90;;;;;;5022798;28;20199;-62
2022/10/04 03:42:56;;;;;;;1.30;1.30;;;9.40;99.90;;;;;;5020483;28;20232;-62
2022/10/04 03:45:24;;;;;;;1.20;1.20;;;9.40;99.90;;;;;;5023613;28;20802;-61
2022/10/04 03:47:52;;;;;;;1.23;1.20;;;9.40;99.90;;;;;;5023753;28;20229;-63
2022/10/04 03:50:25;;;;;;;1.50;1.40;;;9.50;99.90;;;;;;5021202;28;20224;-63
2022/10/04 03:52:54;;;;;;;1.23;1.13;;;9.50;99.90;;;;;;5019875;28;20208;-63
2022/10/04 03:55:24;;;;;;;1.30;1.20;;;9.50;99.90;;;;;;5024059;28;20652;-62
2022/10/04 03:57:51;;;;;;;1.40;1.30;;;9.50;99.90;;;;;;5004234;28;20236;-62
2022/10/04 04:00:20;;;;;;;1.50;1.40;;;9.40;99.90;;;;;;5024274;28;20295;-62
2022/10/04 04:02:51;;;;;;;1.17;1.17;;;9.40;99.90;;;;;;5011488;28;20288;-62
2022/10/04 04:05:23;;;;;;;1.50;1.40;;;9.40;99.90;;;;;;5023437;28;20300;-63
2022/10/04 04:08:02;;;;;;;1.30;1.30;;;9.40;99.90;;;;;;5021482;28;20260;-62
2022/10/04 04:10:33;;;;;;;1.13;1.13;;;9.40;99.90;;;;;;5026345;28;20235;-64
2022/10/04 04:13:18;;;;;;;1.60;1.50;;;9.40;99.90;;;;;;5020557;28;20204;-63
2022/10/04 04:15:46;;;;;;;1.20;1.20;;;9.40;99.90;;;;;;5024407;28;20235;-64
2022/10/04 04:18:18;;;;;;;1.10;1.10;;;9.50;99.90;;;;;;5029432;28;20256;-63
2022/10/04 04:20:45;;;;;;;1.23;1.10;;;9.50;99.90;;;;;;5024262;28;20232;-64
2022/10/04 04:23:26;;;;;;;1.23;1.20;;;9.50;99.90;;;;;;5018507;28;20209;-64
2022/10/04 04:25:55;;;;;;;1.10;1.10;;;9.50;99.90;;;;;;5017700;28;20203;-63
2022/10/04 04:28:26;;;;;;;1.30;1.30;;;9.50;99.90;;;;;;5017367;28;20240;-63
2022/10/04 04:31:00;;;;;;;1.67;1.57;;;9.50;99.90;;;;;;5029733;28;20247;-63
2022/10/04 04:33:30;;;;;;;1.50;1.40;;;9.50;99.90;;;;;;5005061;28;20201;-63
2022/10/04 04:36:04;;;;;;;1.40;1.30;;;9.50;99.90;;;;;;5020301;28;20212;-65
2022/10/04 04:38:31;;;;;;;1.40;1.30;;;9.50;99.90;;;;;;5010500;28;20223;-65
2022/10/04 04:41:08;;;;;;;2.60;1.50;;;9.50;99.90;;;;;;5016186;28;20246;-64
2022/10/04 04:43:36;;;;;;;1.20;1.20;;;9.60;99.90;;;;;;5016849;28;20201;-63
2022/10/04 04:46:11;;;;;;;1.53;1.43;;;9.60;99.90;;;;;;5014446;28;20205;-64
2022/10/04 04:48:38;;;;;;;1.47;1.37;;;9.60;99.90;;;;;;5014256;28;20244;-63
2022/10/04 04:51:05;;;;;;;1.30;1.30;;;9.60;99.90;;;;;;5020803;28;20589;-63
2022/10/04 04:53:33;;;;;;;1.30;1.20;;;9.60;99.90;;;;;;5017642;28;20224;-62
2022/10/04 04:56:02;;;;;;;1.20;1.20;;;9.60;99.90;;;;;;5013048;28;20201;-63
2022/10/04 04:58:34;;;;;;;1.27;1.20;;;9.50;99.90;;;;;;5013538;28;20264;-64
2022/10/04 05:01:06;;;;;;;1.40;1.20;;;9.50;99.90;;;;;;5013168;28;20294;-64
2022/10/04 05:03:35;;;;;;;1.30;1.30;;;9.50;99.90;;;;;;5014576;28;20201;-64
2022/10/04 05:06:03;;;;;;;1.00;1.00;;;9.50;99.90;;;;;;5016008;28;21204;-62
2022/10/04 05:08:31;;;;;;;1.07;1.07;;;9.60;99.90;;;;;;5014165;28;20221;-64
2022/10/04 05:11:04;;;;;;;1.60;1.50;;;9.60;99.90;;;;;;5024007;28;20217;-63
2022/10/04 05:13:38;;;;;;;1.17;1.17;;;9.60;99.90;;;;;;5022938;28;20197;-64
2022/10/04 05:16:12;;;;;;;1.37;1.27;;;9.50;99.90;;;;;;5025060;28;20209;-64
2022/10/04 05:18:39;;;;;;;1.40;1.30;;;9.40;99.90;;;;;;5032178;28;20882;-63
2022/10/04 05:21:13;;;;;;;1.30;1.20;;;9.30;99.90;;;;;;5017554;28;20197;-64
2022/10/04 05:23:40;;;;;;;1.10;1.10;;;9.30;99.90;;;;;;5017664;28;20219;-63
2022/10/04 05:26:11;;;;;;;1.20;1.20;;;9.30;99.90;;;;;;5025621;28;20565;-63
2022/10/04 05:28:39;;;;;;;1.30;1.30;;;9.40;99.90;;;;;;5021905;28;20229;-63
2022/10/04 05:31:27;;;;;;;1.30;1.20;;;9.40;99.90;;;;;;5022803;28;20236;-63
2022/10/04 05:33:57;;;;;;;1.10;1.00;;;9.40;99.90;;;;;;5019794;28;20595;-65
2022/10/04 05:36:46;;;;;;;1.23;1.17;;;9.50;99.90;;;;;;5022381;28;20209;-63
2022/10/04 05:39:24;;;;;;;1.10;1.10;;;9.50;99.90;;;;;;5017037;28;20590;-63
2022/10/04 05:42:07;;;;;;;1.10;1.03;;;9.50;99.90;;;;;;5017838;28;20196;-64
2022/10/04 05:44:44;;;;;;;1.30;1.20;;;9.60;99.90;;;;;;5025154;28;20994;-63
2022/10/04 05:47:15;;;;;;;2.20;1.10;;;9.60;99.90;;;;;;5014566;28;20301;-64
2022/10/04 05:49:43;;;;;;;1.80;1.70;;;9.70;99.90;;;;;;5014998;28;20212;-64
2022/10/04 05:52:16;;;;;;;2.00;1.87;;;9.60;99.90;;;;;;5016539;28;20217;-63
2022/10/04 05:54:44;;;;;;;1.57;1.53;;;9.50;99.90;;;;;;5016805;28;20237;-64
2022/10/04 05:57:38;;;;;;;1.83;1.73;;;9.30;99.90;;;;;;5025639;28;20209;-63
2022/10/04 06:00:13;;;;;;;4.73;3.27;;;9.10;99.90;;;;;;5015220;28;20205;-62
2022/10/04 06:03:14;;;;;;;5.17;2.47;;;9.10;99.90;;;;;;5024059;28;20239;-63
2022/10/04 06:05:53;;;;;;;6.83;3.20;;;9.10;99.90;;;;;;5023447;28;20201;-63
2022/10/04 06:08:32;;;;;;;4.90;2.70;;;9.10;99.90;;;;;;5027207;28;20236;-63
2022/10/04 06:11:29;;;;;;;7.33;3.43;;;9.20;99.90;;;;;;5021964;28;20217;-65
2022/10/04 06:14:31;;;;;;;14.27;4.57;;;9.10;99.90;;;;;;5012933;28;20223;-63
2022/10/04 06:17:26;;;;;;;7.67;2.50;;;9.00;99.90;;;;;;5015074;28;20196;-63
2022/10/04 06:20:29;;;;;;;1.70;1.60;;;8.90;99.90;;;;;;5005793;28;20203;-63
2022/10/04 06:23:00;;;;;;;1.40;1.40;;;9.00;99.90;;;;;;5011358;28;20288;-63
2022/10/04 06:25:31;;;;;;;11.73;3.43;;;9.20;99.90;;;;;;5041400;22;20231;-67
2022/10/04 06:28:12;;;;;;;1.77;1.67;;;9.30;99.90;;;;;;5035475;28;20294;-68
2022/10/04 06:30:52;;;;;;;1.47;1.47;;;9.50;99.90;;;;;;5058977;28;20223;-68
2022/10/04 06:33:34;;;;;;;3.27;1.40;;;9.50;99.90;;;;;;5036778;28;20200;-69
2022/10/04 06:36:32;;;;;;;1.23;1.20;;;9.70;99.90;;;;;;5043896;28;20254;-67
2022/10/04 06:39:18;;;;;;;1.40;1.30;;;9.80;99.90;;;;;;5044984;28;20719;-67
2022/10/04 06:42:14;;;;;;;2.93;1.67;;;9.90;99.90;;;;;;5038045;28;20283;-67
2022/10/04 06:44:59;;;;;;;1.90;1.80;;;10.00;99.90;;;;;;5042109;28;20291;-66
2022/10/04 06:47:42;;;;;;;2.10;2.00;;;10.00;99.90;;;;;;5038539;28;20208;-67
2022/10/04 06:50:24;;;;;;;3.47;3.03;;;10.10;99.90;;;;;;5033032;28;20224;-68
2022/10/04 06:53:17;;;;;;;3.17;2.97;;;10.20;99.90;;;;;;5037999;28;20237;-67
2022/10/04 06:56:06;;;;;;;3.00;2.70;;;10.30;99.90;;;;;;5036286;28;20228;-68
2022/10/04 06:59:09;;;;;;;4.20;3.90;;;10.30;99.90;;;;;;5044618;28;20204;-66
2022/10/04 07:01:45;;;;;;;3.83;3.53;;;10.40;99.90;;;;;;5045051;28;20697;-67
2022/10/04 07:04:22;;;;;;;3.50;3.20;;;10.40;99.90;;;;;;5051939;28;20668;-68
2022/10/04 07:07:22;;;;;;;3.70;3.20;;;10.60;99.90;;;;;;5056601;28;20228;-69
2022/10/04 07:09:45;;;;;;;3.57;3.27;;;10.60;99.90;;;;;;5059537;28;20197;-67
2022/10/04 07:12:14;;;;;;;3.63;3.40;;;10.60;99.90;;;;;;5047144;28;20598;-68
2022/10/04 07:14:47;;;;;;;3.10;2.90;;;10.70;99.90;;;;;;5046991;28;20210;-67
2022/10/04 07:17:20;;;;;;;3.57;3.30;;;10.80;99.90;;;;;;5044354;28;20200;-68
2022/10/04 07:19:49;;;;;;;3.03;2.83;;;10.90;99.90;;;;;;5035087;28;20192;-68
2022/10/04 07:22:22;;;;;;;3.17;2.97;;;11.00;99.90;;;;;;5048606;28;20208;-67
2022/10/04 07:25:12;;;;;;;2.27;2.17;;;11.00;99.90;;;;;;5036409;28;20218;-67
2022/10/04 07:29:19;;;;;;;2.13;2.03;;;11.10;99.90;;;;;;5041705;28;20208;-68
2022/10/04 07:30:40;;;;;;;2.50;2.30;;;11.20;99.90;;;;;;5032928;28;20216;-68
2022/10/04 07:33:12;;;;;;;2.00;1.90;;;11.30;99.90;;;;;;5042222;28;20204;-68
2022/10/04 07:35:46;;;;;;;1.80;1.70;;;11.30;99.90;;;;;;5035868;28;20803;-68
2022/10/04 07:38:20;;;;;;;2.10;2.00;;;11.40;99.90;;;;;;5044831;28;20204;-68
2022/10/04 07:41:03;;;;;;;1.90;1.80;;;11.40;99.90;;;;;;5037444;28;20242;-67
2022/10/04 07:43:33;;;;;;;1.77;1.67;;;11.50;99.90;;;;;;5038866;28;20200;-66
2022/10/04 07:46:06;;;;;;;2.13;2.03;;;11.50;99.90;;;;;;5051592;28;20224;-71
2022/10/04 07:48:33;;;;;;;2.20;2.10;;;11.60;99.90;;;;;;5048878;28;20355;-68
2022/10/04 07:51:08;;;;;;;2.07;1.97;;;11.60;99.90;;;;;;5053125;28;20255;-68
2022/10/04 07:53:42;;;;;;;1.90;1.80;;;11.70;99.90;;;;;;5048890;28;20692;-67
2022/10/04 07:56:15;;;;;;;2.10;2.00;;;11.80;99.90;;;;;;5038017;28;20227;-67
2022/10/04 07:58:51;;;;;;;2.17;2.07;;;11.80;99.90;;;;;;5042065;28;20202;-67
2022/10/04 08:01:29;;;;;;;2.80;2.60;;;11.90;99.90;;;;;;5042180;28;20219;-67
2022/10/04 08:04:10;;;;;;;2.20;2.10;;;12.00;99.90;;;;;;5034496;28;20204;-66
2022/10/04 08:06:43;;;;;;;2.30;2.20;;;12.10;99.90;;;;;;5039834;28;20235;-68
2022/10/04 08:09:34;;;;;;;2.07;1.90;;;12.20;99.90;;;;;;5040332;28;20308;-68
2022/10/04 08:12:11;;;;;;;2.80;2.30;;;12.40;99.90;;;;;;5033798;28;20711;-68
2022/10/04 08:14:52;;;;;;;2.40;2.30;;;12.30;99.90;;;;;;5048978;28;20197;-68
2022/10/04 08:17:31;;;;;;;2.00;1.90;;;12.20;99.90;;;;;;5041867;28;20575;-67
2022/10/04 08:20:08;;;;;;;2.17;2.07;;;12.30;99.90;;;;;;5034439;28;20734;-68
2022/10/04 08:22:53;;;;;;;1.93;1.83;;;12.50;99.90;;;;;;5034482;28;20312;-67
2022/10/04 08:25:26;;;;;;;2.07;1.97;;;12.60;99.90;;;;;;5041103;28;20323;-66
2022/10/04 08:31:08;;;;;;;2.50;2.30;;;12.60;99.90;;;;;;5047264;28;20697;-68
2022/10/04 08:33:53;;;;;;;2.17;2.07;;;12.30;99.90;;;;;;5038890;28;20298;-68
2022/10/04 08:36:32;;;;;;;2.40;2.30;;;12.20;99.90;;;;;;5041106;28;20230;-67
2022/10/04 08:39:00;;;;;;;2.17;2.07;;;12.30;99.90;;;;;;5043156;28;20280;-68
2022/10/04 08:42:19;;;;;;;2.43;2.20;;;12.50;99.90;;;;;;5041515;28;20210;-68
2022/10/04 08:45:13;;;;;;;2.33;2.23;;;12.40;99.90;;;;;;5044368;28;20208;-68
2022/10/04 08:48:21;;;;;;;2.53;2.43;;;12.50;99.90;;;;;;5055058;28;20246;-68
2022/10/04 08:51:21;;;;;;;3.03;2.83;;;12.50;99.90;;;;;;5049536;28;20252;-68
2022/10/04 08:54:34;;;;;;;2.33;2.23;;;12.50;99.90;;;;;;5033687;28;20196;-68
2022/10/04 08:57:17;;;;;;;2.40;2.30;;;12.70;99.90;;;;;;5031954;28;20225;-68
2022/10/04 09:00:08;;;;;;;2.50;2.40;;;12.90;99.90;;;;;;5045187;28;20201;-67
2022/10/04 09:03:07;;;;;;;2.43;2.33;;;13.30;99.90;;;;;;5043299;28;20197;-69
2022/10/04 09:05:49;;;;;;;2.07;1.97;;;13.30;99.90;;;;;;5043810;28;20316;-67
2022/10/04 09:08:54;;;;;;;2.00;1.90;;;13.40;99.90;;;;;;5049991;28;20206;-68
2022/10/04 09:11:49;;;;;;;1.97;1.87;;;13.50;99.90;;;;;;5042972;28;20223;-67
2022/10/04 09:14:50;;;;;;;2.17;2.07;;;13.60;99.90;;;;;;5045942;28;20201;-69
2022/10/04 09:17:22;;;;;;;2.20;2.10;;;13.70;99.90;;;;;;5007774;28;20297;-67
2022/10/04 09:19:56;;;;;;;1.83;1.73;;;13.60;99.90;;;;;;5044527;28;20216;-68
2022/10/04 09:22:41;;;;;;;1.67;1.57;;;13.70;99.90;;;;;;5032773;28;20195;-68
2022/10/04 09:25:26;;;;;;;1.43;1.43;;;13.80;99.90;;;;;;5038256;28;20246;-67
2022/10/04 09:28:50;;;;;;;1.47;1.37;;;14.00;99.90;;;;;;5022329;28;20191;-67
2022/10/04 09:31:32;;;;;;;1.20;1.20;;;14.30;99.90;;;;;;4926326;29;20232;-67
2022/10/04 09:34:23;;;;;;;1.30;1.30;;;14.60;99.90;;;;;;5016677;28;20219;-67
2022/10/04 09:37:14;;;;;;;1.23;1.23;;;14.70;99.90;;;;;;5044983;28;20710;-67
2022/10/04 09:40:07;;;;;;;2.03;1.57;;;14.80;99.90;;;;;;5046219;28;20203;-69
2022/10/04 09:42:57;;;;;;;1.33;1.33;;;14.80;99.90;;;;;;5000886;28;20560;-68
2022/10/04 09:45:36;;;;;;;1.37;1.37;;;14.80;99.90;;;;;;5045739;28;20230;-68
2022/10/04 09:48:23;;;;;;;1.33;1.30;;;14.90;99.90;;;;;;5039556;28;20210;-68
2022/10/04 09:51:13;;;;;;;1.20;1.20;;;15.00;99.90;;;;;;5037371;28;20223;-67
2022/10/04 09:53:51;;;;;;;1.37;1.37;;;15.10;99.90;;;;;;5040333;28;20735;-68
2022/10/04 09:56:37;;;;;;;1.50;1.40;;;15.20;99.90;;;;;;5035855;28;20224;-67
2022/10/04 09:59:35;;;;;;;1.20;1.20;;;15.30;99.90;;;;;;5032846;28;20251;-67
2022/10/04 10:02:39;;;;;;;1.13;1.13;;;15.30;99.90;;;;;;5041554;28;20227;-67
2022/10/04 10:05:23;;;;;;;1.33;1.30;;;15.30;99.90;;;;;;5044157;28;20287;-67
2022/10/04 10:07:58;;;;;;;1.30;1.30;;;15.40;99.90;;;;;;5037733;28;20644;-68
2022/10/04 10:13:41;;;;;;;1.07;1.07;;;15.80;99.90;;;;;;5041985;28;20262;-67
2022/10/04 10:16:28;;;;;;;1.20;1.20;;;15.90;99.90;;;;;;5041932;28;20263;-68
2022/10/04 10:19:15;;;;;;;1.27;1.27;;;15.90;99.90;;;;;;5032713;28;20200;-67
2022/10/04 10:21:55;;;;;;;1.33;1.23;;;15.90;99.90;;;;;;5035703;28;20235;-68
2022/10/04 10:25:03;;;;;;;1.40;1.30;;;15.90;99.90;;;;;;5037632;28;20207;-68
2022/10/04 10:28:04;;;;;;;1.23;1.23;;;16.20;99.90;;;;;;5040688;28;20199;-66
2022/10/04 10:30:41;;;;;;;1.30;1.27;;;16.40;99.90;;;;;;5019283;28;20553;-67
2022/10/04 10:33:32;;;;;;;1.23;1.17;;;16.40;99.90;;;;;;5042368;28;20210;-68
2022/10/04 10:36:26;;;;;;;1.13;1.13;;;16.50;99.90;;;;;;5031392;28;20226;-68
2022/10/04 10:39:41;;;;;;;1.20;1.20;;;16.40;99.90;;;;;;5031015;28;20206;-66
2022/10/04 10:42:32;;;;;;;1.23;1.23;;;16.30;99.90;;;;;;4996042;28;20573;-67
2022/10/04 10:45:29;;;;;;;1.10;1.10;;;16.30;99.90;;;;;;5040155;28;20227;-66
2022/10/04 10:48:05;;;;;;;1.30;1.30;;;16.50;99.90;;;;;;5036233;28;20203;-67
2022/10/04 10:50:58;;;;;;;1.30;1.30;;;16.60;99.90;;;;;;5041424;28;20230;-67
2022/10/04 10:54:07;;;;;;;1.40;1.30;;;16.90;99.90;;;;;;5041949;28;20200;-65
2022/10/04 10:56:50;;;;;;;1.30;1.30;;;16.80;99.90;;;;;;5044104;28;20224;-68
2022/10/04 11:00:06;;;;;;;1.53;1.43;;;16.90;99.90;;;;;;5047954;28;20671;-67
2022/10/04 11:03:04;;;;;;;1.33;1.33;;;17.10;99.90;;;;;;5049333;28;20208;-68
2022/10/04 11:06:09;;;;;;;1.53;1.43;;;17.20;99.90;;;;;;5043335;28;20272;-67
2022/10/04 11:09:03;;;;;;;1.60;1.50;;;17.40;99.90;;;;;;5042829;28;20239;-67
2022/10/04 11:11:49;;;;;;;1.40;1.30;;;17.40;99.90;;;;;;5048611;28;20220;-66
2022/10/04 11:14:39;;;;;;;1.70;1.60;;;17.50;99.90;;;;;;5037540;28;20209;-67
2022/10/04 11:17:25;;;;;;;1.60;1.50;;;17.70;99.90;;;;;;5033808;28;20674;-67
2022/10/04 11:20:34;;;;;;;1.63;1.53;;;17.90;99.90;;;;;;5037998;28;20200;-68
2022/10/04 11:23:39;;;;;;;1.47;1.43;;;18.10;99.90;;;;;;5031129;28;20212;-67
2022/10/04 11:26:45;;;;;;;1.40;1.40;;;17.90;99.90;;;;;;5031665;28;20231;-68
2022/10/04 11:29:23;;;;;;;1.37;1.37;;;17.40;99.90;;;;;;5007520;28;20697;-66
2022/10/04 11:32:29;;;;;;;1.40;1.30;;;17.50;99.90;;;;;;5039893;28;20220;-67
2022/10/04 11:35:35;;;;;;;1.60;1.50;;;17.60;99.90;;;;;;5026216;28;20651;-67
2022/10/04 11:38:15;;;;;;;1.30;1.30;;;17.60;99.90;;;;;;5042519;28;20211;-67
2022/10/04 11:40:57;;;;;;;1.57;1.47;;;17.60;99.90;;;;;;5040930;28;20207;-68
2022/10/04 11:43:45;;;;;;;1.40;1.37;;;17.30;99.90;;;;;;5032170;28;20201;-66
2022/10/04 11:46:32;;;;;;;1.20;1.20;;;17.20;99.90;;;;;;5036257;28;20315;-67
2022/10/04 11:49:13;;;;;;;1.30;1.30;;;17.40;99.90;;;;;;5033482;28;20259;-66
2022/10/04 11:52:18;;;;;;;1.43;1.33;;;17.60;99.90;;;;;;5038061;28;20725;-68
2022/10/04 11:55:20;;;;;;;1.10;1.10;;;17.70;99.90;;;;;;5039998;28;20267;-67
2022/10/04 11:57:51;;;;;;;1.60;1.50;;;17.80;99.90;;;;;;5042484;28;20236;-67
2022/10/04 12:00:20;;;;;;;1.30;1.30;;;17.70;99.90;;;;;;5046388;28;20571;-67
2022/10/04 12:03:22;;;;;;;1.37;1.37;;;17.80;99.90;;;;;;5040253;28;20200;-67
2022/10/04 12:06:14;;;;;;;1.20;1.20;;;17.90;99.90;;;;;;5042104;28;20216;-66
2022/10/04 12:08:51;;;;;;;1.23;1.23;;;18.00;99.90;;;;;;5043494;28;20207;-68
2022/10/04 12:14:53;;;;;;;1.20;1.20;;;18.00;99.90;;;;;;5033100;28;20616;-68
2022/10/04 12:17:42;;;;;;;1.17;1.17;;;18.10;99.90;;;;;;5045552;28;20204;-68
2022/10/04 12:20:45;;;;;;;1.20;1.20;;;18.00;99.90;;;;;;5037340;28;20205;-67
2022/10/04 12:23:48;;;;;;;1.50;1.40;;;18.10;99.90;;;;;;5038888;28;20197;-68
2022/10/04 12:26:59;;;;;;;1.57;1.30;;;18.30;99.90;;;;;;5040217;28;20292;-69
2022/10/04 12:30:08;;;;;;;1.20;1.20;;;18.40;99.90;;;;;;5040895;28;20567;-67
2022/10/04 12:32:42;;;;;;;1.30;1.30;;;18.50;99.90;;;;;;5022751;28;20315;-68
2022/10/04 12:35:24;;;;;;;1.60;1.50;;;18.50;99.90;;;;;;5049175;28;20224;-68
2022/10/04 12:38:15;;;;;;;2.03;1.93;;;18.60;99.90;;;;;;5046767;28;20654;-66
2022/10/04 12:40:46;;;;;;;1.40;1.30;;;18.60;99.90;;;;;;5044272;28;20797;-66
2022/10/04 12:43:21;;;;;;;1.23;1.23;;;18.60;99.90;;;;;;5037406;28;20287;-68
2022/10/04 12:45:56;;;;;;;1.30;1.30;;;18.80;99.90;;;;;;5035416;28;20342;-67
2022/10/04 12:48:34;;;;;;;1.47;1.40;;;18.80;99.90;;;;;;5041520;28;20212;-68
2022/10/04 12:51:09;;;;;;;1.10;1.10;;;18.90;99.90;;;;;;5045219;28;20211;-68
2022/10/04 12:53:48;;;;;;;1.20;1.20;;;18.90;99.90;;;;;;5043776;28;20311;-66
2022/10/04 12:56:29;;;;;;;1.30;1.20;;;18.90;99.90;;;;;;5035797;28;20236;-66
2022/10/04 12:59:19;;;;;;;1.20;1.20;;;18.90;99.90;;;;;;5041086;28;20212;-67
2022/10/04 13:01:55;;;;;;;1.30;1.20;;;19.10;99.90;;;;;;5042203;28;20201;-67
2022/10/04 13:04:31;;;;;;;1.20;1.20;;;19.00;99.90;;;;;;5044277;28;20588;-67
2022/10/04 13:07:18;;;;;;;1.10;1.10;;;19.10;99.90;;;;;;5026052;28;20234;-67
2022/10/04 13:09:53;;;;;;;1.20;1.20;;;19.00;99.90;;;;;;5060193;28;20291;-67
2022/10/04 13:12:37;;;;;;;1.20;1.20;;;18.90;99.90;;;;;;5049278;28;20212;-67
2022/10/04 13:15:20;;;;;;;1.13;1.13;;;19.10;99.90;;;;;;5050782;28;20219;-68
2022/10/04 13:17:54;;;;;;;1.10;1.10;;;19.20;99.90;;;;;;5048179;28;20247;-69
2022/10/04 13:20:38;;;;;;;1.10;1.10;;;19.10;99.90;;;;;;5061215;28;20204;-67
2022/10/04 13:23:13;;;;;;;1.13;1.03;;;19.30;99.90;;;;;;5048056;28;20300;-67
2022/10/04 13:25:56;;;;;;;1.10;1.10;;;19.20;99.90;;;;;;5053137;28;20247;-66
2022/10/04 13:28:30;;;;;;;1.10;1.10;;;19.10;99.90;;;;;;5045509;28;20204;-67
2022/10/04 13:31:03;;;;;;;1.17;1.17;;;19.20;99.90;;;;;;5042132;28;20204;-66
2022/10/04 13:33:39;;;;;;;2.53;1.30;;;19.20;99.90;;;;;;5032754;28;20225;-67
2022/10/04 13:36:15;;;;;;;1.00;1.00;;;19.30;99.90;;;;;;5043890;28;20232;-67
2022/10/04 13:39:13;;;;;;;1.10;1.10;;;19.40;99.90;;;;;;5038810;28;20210;-68
2022/10/04 13:42:00;;;;;;;1.07;1.07;;;19.60;99.90;;;;;;5033281;28;20616;-67
2022/10/04 13:44:55;;;;;;;1.50;1.13;;;19.60;99.90;;;;;;5047375;28;20200;-67
2022/10/04 13:47:41;;;;;;;1.00;1.00;;;19.60;99.90;;;;;;5038676;28;20204;-67
2022/10/04 13:50:30;;;;;;;1.20;1.20;;;19.70;99.90;;;;;;5040066;28;20215;-68
2022/10/04 13:58:51;;;;;;;1.40;1.40;;;19.70;99.90;;;;;;5045998;28;20273;-66
2022/10/04 14:01:53;;;;;;;1.13;1.13;;;19.60;99.90;;;;;;5046710;28;20204;-67
2022/10/04 14:04:46;;;;;;;1.10;1.10;;;19.60;99.90;;;;;;5041825;28;20255;-68
2022/10/04 14:07:36;;;;;;;1.30;1.30;;;19.60;99.90;;;;;;5040859;28;20218;-67
2022/10/04 14:10:29;;;;;;;1.10;1.10;;;19.60;99.90;;;;;;5041743;28;20208;-67
2022/10/04 14:13:41;;;;;;;1.00;1.00;;;19.80;99.90;;;;;;5028100;28;20724;-67
2022/10/04 14:16:50;;;;;;;1.03;1.03;;;20.00;99.90;;;;;;5038296;28;20231;-68
2022/10/04 14:19:38;;;;;;;1.30;1.20;;;20.10;99.90;;;;;;5008362;28;20209;-67
2022/10/04 14:22:40;;;;;;;1.00;1.00;;;20.10;99.90;;;;;;5037151;28;20207;-67